sensor_id;sensor_type;location;lat;lon;timestamp;temperature;humidity
31542;DHT22;18152;49.986;8.646;2023-08-06T00:02:04;14.40;99.90
31542;DHT22;18152;49.986;8.646;2023-08-06T00:04:29;14.40;99.90
31542;DHT22;18152;49.986;8.646;2023-08-06T00:06:55;14.40;99.90
31542;DHT22;18152;49.986;8.646;2023-08-06T00:09:20;14.50;99.90
31542;DHT22;18152;49.986;8.646;2023-08-06T00:11:46;14.50;99.90
31542;DHT22;18152;49.986;8.646;2023-08-06T00:14:12;14.50;99.90
31542;DHT22;18152;49.986;8.646;2023-08-06T00:16:42;14.40;99.90
31542;DHT22;18152;49.986;8.646;2023-08-06T00:19:08;14.50;99.90
31542;DHT22;18152;49.986;8.646;2023-08-06T00:21:34;14.40;99.90
31542;DHT22;18152;49.986;8.646;2023-08-06T00:23:59;14.40;99.90
31542;DHT22;18152;49.986;8.646;2023-08-06T00:26:25;14.50;99.90
31542;DHT22;18152;49.986;8.646;2023-08-06T00:28:50;14.50;99.90
31542;DHT22;18152;49.986;8.646;2023-08-06T00:31:16;14.50;99.90
31542;DHT22;18152;49.986;8.646;2023-08-06T00:33:41;14.50;99.90
31542;DHT22;18152;49.986;8.646;2023-08-06T00:36:07;14.60;99.90
31542;DHT22;18152;49.986;8.646;2023-08-06T00:38:32;14.60;99.90
31542;DHT22;18152;49.986;8.646;2023-08-06T00:40:58;14.60;99.90
31542;DHT22;18152;49.986;8.646;2023-08-06T00:43:23;14.60;99.90
31542;DHT22;18152;49.986;8.646;2023-08-06T00:45:49;14.60;99.90
31542;DHT22;18152;49.986;8.646;2023-08-06T00:48:15;14.60;99.90
31542;DHT22;18152;49.986;8.646;2023-08-06T00:50:40;14.60;99.90
31542;DHT22;18152;49.986;8.646;2023-08-06T00:53:06;14.60;99.90
31542;DHT22;18152;49.986;8.646;2023-08-06T00:55:32;14.60;99.90
31542;DHT22;18152;49.986;8.646;2023-08-06T00:57:58;14.60;99.90
31542;DHT22;18152;49.986;8.646;2023-08-06T01:00:24;14.60;99.90
31542;DHT22;18152;49.986;8.646;2023-08-06T01:02:51;14.60;99.90
31542;DHT22;18152;49.986;8.646;2023-08-06T01:05:17;14.60;99.90
31542;DHT22;18152;49.986;8.646;2023-08-06T01:13:40;14.60;99.90
31542;DHT22;18152;49.986;8.646;2023-08-06T01:16:09;14.60;99.90
31542;DHT22;18152;49.986;8.646;2023-08-06T01:18:35;14.50;99.90
31542;DHT22;18152;49.986;8.646;2023-08-06T01:21:02;14.60;99.90
31542;DHT22;18152;49.986;8.646;2023-08-06T01:23:28;14.60;99.90
31542;DHT22;18152;49.986;8.646;2023-08-06T01:29:08;14.50;99.90
31542;DHT22;18152;49.986;8.646;2023-08-06T01:31:37;14.60;99.90
31542;DHT22;18152;49.986;8.646;2023-08-06T01:34:04;14.60;99.90
31542;DHT22;18152;49.986;8.646;2023-08-06T01:36:31;14.50;99.90
31542;DHT22;18152;49.986;8.646;2023-08-06T01:38:57;14.60;99.90
31542;DHT22;18152;49.986;8.646;2023-08-06T01:41:23;14.60;99.90
31542;DHT22;18152;49.986;8.646;2023-08-06T01:43:49;14.60;99.90
31542;DHT22;18152;49.986;8.646;2023-08-06T01:46:14;14.60;99.90
31542;DHT22;18152;49.986;8.646;2023-08-06T01:48:40;14.60;99.90
31542;DHT22;18152;49.986;8.646;2023-08-06T01:51:06;14.50;99.90
31542;DHT22;18152;49.986;8.646;2023-08-06T01:53:32;14.60;99.90
31542;DHT22;18152;49.986;8.646;2023-08-06T01:55:58;14.50;99.90
31542;DHT22;18152;49.986;8.646;2023-08-06T01:58:24;14.50;99.90
31542;DHT22;18152;49.986;8.646;2023-08-06T02:00:49;14.60;99.90
31542;DHT22;18152;49.986;8.646;2023-08-06T02:03:15;14.60;99.90
31542;DHT22;18152;49.986;8.646;2023-08-06T02:05:41;14.50;99.90
31542;DHT22;18152;49.986;8.646;2023-08-06T02:08:06;14.50;99.90
31542;DHT22;18152;49.986;8.646;2023-08-06T02:10:32;14.60;99.90
31542;DHT22;18152;49.986;8.646;2023-08-06T02:12:58;14.50;99.90
31542;DHT22;18152;49.986;8.646;2023-08-06T02:15:23;14.60;99.90
31542;DHT22;18152;49.986;8.646;2023-08-06T02:17:49;14.50;99.90
31542;DHT22;18152;49.986;8.646;2023-08-06T02:20:15;14.60;99.90
31542;DHT22;18152;49.986;8.646;2023-08-06T02:22:40;14.50;99.90
31542;DHT22;18152;49.986;8.646;2023-08-06T02:25:06;14.60;99.90
31542;DHT22;18152;49.986;8.646;2023-08-06T02:27:31;14.60;99.90
31542;DHT22;18152;49.986;8.646;2023-08-06T02:29:57;14.60;99.90
31542;DHT22;18152;49.986;8.646;2023-08-06T02:32:23;14.60;99.90
31542;DHT22;18152;49.986;8.646;2023-08-06T02:34:48;14.50;99.90
31542;DHT22;18152;49.986;8.646;2023-08-06T02:37:14;14.50;99.90
31542;DHT22;18152;49.986;8.646;2023-08-06T02:39:40;14.60;99.90
31542;DHT22;18152;49.986;8.646;2023-08-06T02:42:08;14.50;99.90
31542;DHT22;18152;49.986;8.646;2023-08-06T02:44:34;14.50;99.90
31542;DHT22;18152;49.986;8.646;2023-08-06T02:47:00;14.60;99.90
31542;DHT22;18152;49.986;8.646;2023-08-06T02:49:26;14.60;99.90
31542;DHT22;18152;49.986;8.646;2023-08-06T02:51:51;14.60;99.90
31542;DHT22;18152;49.986;8.646;2023-08-06T02:54:18;14.60;99.90
31542;DHT22;18152;49.986;8.646;2023-08-06T02:56:45;14.60;99.90
31542;DHT22;18152;49.986;8.646;2023-08-06T02:59:11;14.60;99.90
31542;DHT22;18152;49.986;8.646;2023-08-06T03:01:36;14.60;99.90
31542;DHT22;18152;49.986;8.646;2023-08-06T03:04:02;14.70;99.90
31542;DHT22;18152;49.986;8.646;2023-08-06T03:06:28;14.60;99.90
31542;DHT22;18152;49.986;8.646;2023-08-06T03:08:53;14.60;99.90
31542;DHT22;18152;49.986;8.646;2023-08-06T03:11:19;14.60;99.90
31542;DHT22;18152;49.986;8.646;2023-08-06T03:13:44;14.60;99.90
31542;DHT22;18152;49.986;8.646;2023-08-06T03:16:10;14.60;99.90
31542;DHT22;18152;49.986;8.646;2023-08-06T03:18:35;14.60;99.90
31542;DHT22;18152;49.986;8.646;2023-08-06T03:21:01;14.60;99.90
31542;DHT22;18152;49.986;8.646;2023-08-06T03:23:26;14.60;99.90
31542;DHT22;18152;49.986;8.646;2023-08-06T03:25:52;14.70;99.90
31542;DHT22;18152;49.986;8.646;2023-08-06T03:28:17;14.80;99.90
31542;DHT22;18152;49.986;8.646;2023-08-06T03:30:43;14.70;99.90
31542;DHT22;18152;49.986;8.646;2023-08-06T03:33:09;14.70;99.90
31542;DHT22;18152;49.986;8.646;2023-08-06T03:35:34;14.70;99.90
31542;DHT22;18152;49.986;8.646;2023-08-06T03:38:00;14.60;99.90
31542;DHT22;18152;49.986;8.646;2023-08-06T03:40:25;14.50;99.90
31542;DHT22;18152;49.986;8.646;2023-08-06T03:42:51;14.50;99.90
31542;DHT22;18152;49.986;8.646;2023-08-06T03:45:16;14.50;99.90
31542;DHT22;18152;49.986;8.646;2023-08-06T03:47:42;14.50;99.90
31542;DHT22;18152;49.986;8.646;2023-08-06T03:50:08;14.50;99.90
31542;DHT22;18152;49.986;8.646;2023-08-06T03:52:33;14.40;99.90
31542;DHT22;18152;49.986;8.646;2023-08-06T03:54:59;14.40;99.90
31542;DHT22;18152;49.986;8.646;2023-08-06T03:57:24;14.40;99.90
31542;DHT22;18152;49.986;8.646;2023-08-06T03:59:50;14.50;99.90
31542;DHT22;18152;49.986;8.646;2023-08-06T04:02:15;14.40;99.90
31542;DHT22;18152;49.986;8.646;2023-08-06T04:04:41;14.40;99.90
31542;DHT22;18152;49.986;8.646;2023-08-06T04:07:06;14.40;99.90
31542;DHT22;18152;49.986;8.646;2023-08-06T04:09:32;14.40;99.90
31542;DHT22;18152;49.986;8.646;2023-08-06T04:11:57;14.30;99.90
31542;DHT22;18152;49.986;8.646;2023-08-06T04:14:25;14.30;99.90
31542;DHT22;18152;49.986;8.646;2023-08-06T04:16:51;14.30;99.90
31542;DHT22;18152;49.986;8.646;2023-08-06T04:19:17;14.40;99.90
31542;DHT22;18152;49.986;8.646;2023-08-06T04:21:42;14.50;99.90
31542;DHT22;18152;49.986;8.646;2023-08-06T04:24:08;14.50;99.90
31542;DHT22;18152;49.986;8.646;2023-08-06T04:26:33;14.50;99.90
31542;DHT22;18152;49.986;8.646;2023-08-06T04:28:59;14.50;99.90
31542;DHT22;18152;49.986;8.646;2023-08-06T04:31:24;14.40;99.90
31542;DHT22;18152;49.986;8.646;2023-08-06T04:33:50;14.40;99.90
31542;DHT22;18152;49.986;8.646;2023-08-06T04:36:15;14.40;99.90
31542;DHT22;18152;49.986;8.646;2023-08-06T04:38:41;14.30;99.90
31542;DHT22;18152;49.986;8.646;2023-08-06T04:41:10;14.30;99.90
31542;DHT22;18152;49.986;8.646;2023-08-06T04:43:36;14.30;99.90
31542;DHT22;18152;49.986;8.646;2023-08-06T04:46:02;14.30;99.90
31542;DHT22;18152;49.986;8.646;2023-08-06T04:48:27;14.30;99.90
31542;DHT22;18152;49.986;8.646;2023-08-06T04:50:53;14.30;99.90
31542;DHT22;18152;49.986;8.646;2023-08-06T04:53:19;14.30;99.90
31542;DHT22;18152;49.986;8.646;2023-08-06T04:55:45;14.30;99.90
31542;DHT22;18152;49.986;8.646;2023-08-06T04:58:12;14.40;99.90
31542;DHT22;18152;49.986;8.646;2023-08-06T05:00:37;14.30;99.90
31542;DHT22;18152;49.986;8.646;2023-08-06T05:03:03;14.30;99.90
31542;DHT22;18152;49.986;8.646;2023-08-06T05:05:29;14.30;99.90
31542;DHT22;18152;49.986;8.646;2023-08-06T05:07:56;14.20;99.90
31542;DHT22;18152;49.986;8.646;2023-08-06T05:10:24;14.10;99.90
31542;DHT22;18152;49.986;8.646;2023-08-06T05:12:50;14.20;99.90
31542;DHT22;18152;49.986;8.646;2023-08-06T05:15:15;14.20;99.90
31542;DHT22;18152;49.986;8.646;2023-08-06T05:17:41;14.20;99.90
31542;DHT22;18152;49.986;8.646;2023-08-06T05:20:07;14.20;99.90
31542;DHT22;18152;49.986;8.646;2023-08-06T05:22:32;14.20;99.90
31542;DHT22;18152;49.986;8.646;2023-08-06T05:24:58;14.20;99.90
31542;DHT22;18152;49.986;8.646;2023-08-06T05:27:23;14.10;99.90
31542;DHT22;18152;49.986;8.646;2023-08-06T05:29:49;14.10;99.90
31542;DHT22;18152;49.986;8.646;2023-08-06T05:32:14;14.00;99.90
31542;DHT22;18152;49.986;8.646;2023-08-06T05:34:40;14.10;99.90
31542;DHT22;18152;49.986;8.646;2023-08-06T05:37:06;14.00;99.90
31542;DHT22;18152;49.986;8.646;2023-08-06T05:39:32;14.20;99.90
31542;DHT22;18152;49.986;8.646;2023-08-06T05:41:58;14.20;99.90
31542;DHT22;18152;49.986;8.646;2023-08-06T05:44:23;14.20;99.90
31542;DHT22;18152;49.986;8.646;2023-08-06T05:46:49;14.30;99.90
31542;DHT22;18152;49.986;8.646;2023-08-06T05:49:15;14.30;99.90
31542;DHT22;18152;49.986;8.646;2023-08-06T05:51:41;14.20;99.90
31542;DHT22;18152;49.986;8.646;2023-08-06T05:54:07;14.20;99.90
31542;DHT22;18152;49.986;8.646;2023-08-06T05:56:32;14.20;99.90
31542;DHT22;18152;49.986;8.646;2023-08-06T05:58:58;14.30;99.90
31542;DHT22;18152;49.986;8.646;2023-08-06T06:01:23;14.30;99.90
31542;DHT22;18152;49.986;8.646;2023-08-06T06:03:49;14.20;99.90
31542;DHT22;18152;49.986;8.646;2023-08-06T06:06:15;14.20;99.90
31542;DHT22;18152;49.986;8.646;2023-08-06T06:08:41;14.20;99.90
31542;DHT22;18152;49.986;8.646;2023-08-06T06:11:06;14.30;99.90
31542;DHT22;18152;49.986;8.646;2023-08-06T06:13:32;14.20;99.90
31542;DHT22;18152;49.986;8.646;2023-08-06T06:15:58;14.20;99.90
31542;DHT22;18152;49.986;8.646;2023-08-06T06:18:23;14.20;99.90
31542;DHT22;18152;49.986;8.646;2023-08-06T06:20:49;14.20;99.90
31542;DHT22;18152;49.986;8.646;2023-08-06T06:23:14;14.30;99.90
31542;DHT22;18152;49.986;8.646;2023-08-06T06:25:46;14.40;99.90
31542;DHT22;18152;49.986;8.646;2023-08-06T06:28:12;14.40;99.90
31542;DHT22;18152;49.986;8.646;2023-08-06T06:30:37;14.30;99.90
31542;DHT22;18152;49.986;8.646;2023-08-06T06:33:03;14.40;99.90
31542;DHT22;18152;49.986;8.646;2023-08-06T06:35:28;14.40;99.90
31542;DHT22;18152;49.986;8.646;2023-08-06T06:37:54;14.40;99.90
31542;DHT22;18152;49.986;8.646;2023-08-06T06:40:19;14.40;99.90
31542;DHT22;18152;49.986;8.646;2023-08-06T06:42:45;14.40;99.90
31542;DHT22;18152;49.986;8.646;2023-08-06T06:45:10;14.40;99.90
31542;DHT22;18152;49.986;8.646;2023-08-06T06:47:36;14.40;99.90
31542;DHT22;18152;49.986;8.646;2023-08-06T06:50:02;14.50;99.90
31542;DHT22;18152;49.986;8.646;2023-08-06T06:52:27;14.60;99.90
31542;DHT22;18152;49.986;8.646;2023-08-06T06:54:53;14.60;99.90
31542;DHT22;18152;49.986;8.646;2023-08-06T06:57:18;14.70;99.90
31542;DHT22;18152;49.986;8.646;2023-08-06T06:59:44;14.70;99.90
31542;DHT22;18152;49.986;8.646;2023-08-06T07:02:09;14.60;99.90
31542;DHT22;18152;49.986;8.646;2023-08-06T07:04:35;14.50;99.90
31542;DHT22;18152;49.986;8.646;2023-08-06T07:07:00;14.50;99.90
31542;DHT22;18152;49.986;8.646;2023-08-06T07:09:26;14.50;99.90
31542;DHT22;18152;49.986;8.646;2023-08-06T07:11:52;14.50;99.90
31542;DHT22;18152;49.986;8.646;2023-08-06T07:14:17;14.70;99.90
31542;DHT22;18152;49.986;8.646;2023-08-06T07:16:43;14.60;99.90
31542;DHT22;18152;49.986;8.646;2023-08-06T07:19:09;14.70;99.90
31542;DHT22;18152;49.986;8.646;2023-08-06T07:21:34;14.80;99.90
31542;DHT22;18152;49.986;8.646;2023-08-06T07:24:00;14.80;99.90
31542;DHT22;18152;49.986;8.646;2023-08-06T07:26:25;14.80;99.90
31542;DHT22;18152;49.986;8.646;2023-08-06T07:28:51;14.70;99.90
31542;DHT22;18152;49.986;8.646;2023-08-06T07:31:16;14.60;99.90
31542;DHT22;18152;49.986;8.646;2023-08-06T07:33:42;14.60;99.90
31542;DHT22;18152;49.986;8.646;2023-08-06T07:36:11;14.60;99.90
31542;DHT22;18152;49.986;8.646;2023-08-06T07:38:37;14.60;99.90
31542;DHT22;18152;49.986;8.646;2023-08-06T07:41:03;14.50;99.90
31542;DHT22;18152;49.986;8.646;2023-08-06T07:43:29;14.60;99.90
31542;DHT22;18152;49.986;8.646;2023-08-06T07:45:58;14.50;99.90
31542;DHT22;18152;49.986;8.646;2023-08-06T07:48:25;14.40;99.90
31542;DHT22;18152;49.986;8.646;2023-08-06T07:50:57;14.50;99.90
31542;DHT22;18152;49.986;8.646;2023-08-06T07:53:24;14.60;99.90
31542;DHT22;18152;49.986;8.646;2023-08-06T07:55:52;14.60;99.90
31542;DHT22;18152;49.986;8.646;2023-08-06T07:58:19;14.70;99.90
31542;DHT22;18152;49.986;8.646;2023-08-06T08:00:45;14.70;99.90
31542;DHT22;18152;49.986;8.646;2023-08-06T08:03:15;14.80;99.90
31542;DHT22;18152;49.986;8.646;2023-08-06T08:05:44;14.80;99.90
31542;DHT22;18152;49.986;8.646;2023-08-06T08:08:09;14.70;99.90
31542;DHT22;18152;49.986;8.646;2023-08-06T08:10:35;14.60;99.90
31542;DHT22;18152;49.986;8.646;2023-08-06T08:13:02;14.60;99.90
31542;DHT22;18152;49.986;8.646;2023-08-06T08:15:28;14.80;99.90
31542;DHT22;18152;49.986;8.646;2023-08-06T08:17:54;14.80;99.90
31542;DHT22;18152;49.986;8.646;2023-08-06T08:20:20;15.00;99.90
31542;DHT22;18152;49.986;8.646;2023-08-06T08:22:46;15.50;99.90
31542;DHT22;18152;49.986;8.646;2023-08-06T08:25:12;15.70;99.90
31542;DHT22;18152;49.986;8.646;2023-08-06T08:27:37;16.10;99.90
31542;DHT22;18152;49.986;8.646;2023-08-06T08:30:03;17.00;99.90
31542;DHT22;18152;49.986;8.646;2023-08-06T08:32:29;16.70;99.90
31542;DHT22;18152;49.986;8.646;2023-08-06T08:34:54;16.50;99.90
31542;DHT22;18152;49.986;8.646;2023-08-06T08:37:20;16.50;99.90
31542;DHT22;18152;49.986;8.646;2023-08-06T08:39:46;16.80;99.90
31542;DHT22;18152;49.986;8.646;2023-08-06T08:42:15;17.30;99.90
31542;DHT22;18152;49.986;8.646;2023-08-06T08:44:42;17.50;99.90
31542;DHT22;18152;49.986;8.646;2023-08-06T08:47:09;17.60;99.90
31542;DHT22;18152;49.986;8.646;2023-08-06T08:49:36;17.70;99.90
31542;DHT22;18152;49.986;8.646;2023-08-06T08:52:39;17.80;99.90
31542;DHT22;18152;49.986;8.646;2023-08-06T08:55:11;18.30;99.90
31542;DHT22;18152;49.986;8.646;2023-08-06T09:00:16;18.30;99.90
31542;DHT22;18152;49.986;8.646;2023-08-06T09:02:44;18.30;99.90
31542;DHT22;18152;49.986;8.646;2023-08-06T09:05:09;18.10;99.90
31542;DHT22;18152;49.986;8.646;2023-08-06T09:07:41;17.60;99.90
31542;DHT22;18152;49.986;8.646;2023-08-06T09:10:11;17.50;99.90
31542;DHT22;18152;49.986;8.646;2023-08-06T09:12:36;17.40;99.90
31542;DHT22;18152;49.986;8.646;2023-08-06T09:15:03;16.80;99.90
31542;DHT22;18152;49.986;8.646;2023-08-06T09:17:28;16.70;99.90
31542;DHT22;18152;49.986;8.646;2023-08-06T09:19:54;16.60;99.90
31542;DHT22;18152;49.986;8.646;2023-08-06T09:22:20;16.70;99.90
31542;DHT22;18152;49.986;8.646;2023-08-06T09:24:46;16.60;99.90
31542;DHT22;18152;49.986;8.646;2023-08-06T09:27:12;17.00;99.90
31542;DHT22;18152;49.986;8.646;2023-08-06T09:29:43;17.70;99.90
31542;DHT22;18152;49.986;8.646;2023-08-06T09:32:09;18.20;99.90
31542;DHT22;18152;49.986;8.646;2023-08-06T09:34:34;17.50;99.90
31542;DHT22;18152;49.986;8.646;2023-08-06T09:37:00;17.20;99.90
31542;DHT22;18152;49.986;8.646;2023-08-06T09:39:30;16.90;99.90
31542;DHT22;18152;49.986;8.646;2023-08-06T09:42:00;16.40;99.90
31542;DHT22;18152;49.986;8.646;2023-08-06T09:44:31;16.50;99.90
31542;DHT22;18152;49.986;8.646;2023-08-06T09:46:58;16.90;99.90
31542;DHT22;18152;49.986;8.646;2023-08-06T09:49:28;17.00;99.90
31542;DHT22;18152;49.986;8.646;2023-08-06T09:51:55;16.90;99.90
31542;DHT22;18152;49.986;8.646;2023-08-06T09:54:24;17.00;99.90
31542;DHT22;18152;49.986;8.646;2023-08-06T09:56:49;17.00;99.90
31542;DHT22;18152;49.986;8.646;2023-08-06T09:59:17;17.00;99.90
31542;DHT22;18152;49.986;8.646;2023-08-06T10:01:43;18.10;99.90
31542;DHT22;18152;49.986;8.646;2023-08-06T10:04:09;18.50;99.90
31542;DHT22;18152;49.986;8.646;2023-08-06T10:06:37;18.70;99.90
31542;DHT22;18152;49.986;8.646;2023-08-06T10:09:06;18.60;99.90
31542;DHT22;18152;49.986;8.646;2023-08-06T10:11:34;18.30;99.90
31542;DHT22;18152;49.986;8.646;2023-08-06T10:14:06;18.30;99.90
31542;DHT22;18152;49.986;8.646;2023-08-06T10:16:32;18.20;99.90
31542;DHT22;18152;49.986;8.646;2023-08-06T10:18:59;18.40;99.90
31542;DHT22;18152;49.986;8.646;2023-08-06T10:21:26;18.30;99.90
31542;DHT22;18152;49.986;8.646;2023-08-06T10:23:56;17.80;99.90
31542;DHT22;18152;49.986;8.646;2023-08-06T10:26:25;17.90;99.90
31542;DHT22;18152;49.986;8.646;2023-08-06T10:28:52;18.10;99.90
31542;DHT22;18152;49.986;8.646;2023-08-06T10:31:18;18.30;99.90
31542;DHT22;18152;49.986;8.646;2023-08-06T10:33:47;18.30;99.90
31542;DHT22;18152;49.986;8.646;2023-08-06T10:36:14;18.40;99.90
31542;DHT22;18152;49.986;8.646;2023-08-06T10:38:50;18.40;99.90
31542;DHT22;18152;49.986;8.646;2023-08-06T10:41:27;18.70;99.90
31542;DHT22;18152;49.986;8.646;2023-08-06T10:44:05;18.60;99.90
31542;DHT22;18152;49.986;8.646;2023-08-06T10:46:32;18.60;99.90
31542;DHT22;18152;49.986;8.646;2023-08-06T10:48:59;18.50;99.90
31542;DHT22;18152;49.986;8.646;2023-08-06T10:51:25;18.00;99.90
31542;DHT22;18152;49.986;8.646;2023-08-06T10:53:51;17.60;99.90
31542;DHT22;18152;49.986;8.646;2023-08-06T10:56:18;17.50;99.90
31542;DHT22;18152;49.986;8.646;2023-08-06T10:58:48;17.60;99.90
31542;DHT22;18152;49.986;8.646;2023-08-06T11:01:13;17.80;99.90
31542;DHT22;18152;49.986;8.646;2023-08-06T11:08:48;18.40;99.90
31542;DHT22;18152;49.986;8.646;2023-08-06T11:11:15;18.30;99.90
31542;DHT22;18152;49.986;8.646;2023-08-06T11:13:42;18.50;99.90
31542;DHT22;18152;49.986;8.646;2023-08-06T11:16:09;18.30;99.90
31542;DHT22;18152;49.986;8.646;2023-08-06T11:18:35;18.20;99.90
31542;DHT22;18152;49.986;8.646;2023-08-06T11:21:01;18.20;99.90
31542;DHT22;18152;49.986;8.646;2023-08-06T11:23:30;18.00;99.90
31542;DHT22;18152;49.986;8.646;2023-08-06T11:25:56;18.10;99.90
31542;DHT22;18152;49.986;8.646;2023-08-06T11:28:22;18.10;99.90
31542;DHT22;18152;49.986;8.646;2023-08-06T11:30:49;17.90;99.90
31542;DHT22;18152;49.986;8.646;2023-08-06T11:33:23;17.70;99.90
31542;DHT22;18152;49.986;8.646;2023-08-06T11:35:56;17.50;99.90
31542;DHT22;18152;49.986;8.646;2023-08-06T11:38:24;17.40;99.90
31542;DHT22;18152;49.986;8.646;2023-08-06T11:40:51;17.30;99.90
31542;DHT22;18152;49.986;8.646;2023-08-06T11:43:19;17.10;99.90
31542;DHT22;18152;49.986;8.646;2023-08-06T11:45:44;17.10;99.90
31542;DHT22;18152;49.986;8.646;2023-08-06T11:48:10;17.20;99.90
31542;DHT22;18152;49.986;8.646;2023-08-06T11:50:38;17.20;99.90
31542;DHT22;18152;49.986;8.646;2023-08-06T11:53:04;17.30;99.90
31542;DHT22;18152;49.986;8.646;2023-08-06T11:55:31;17.50;99.90
31542;DHT22;18152;49.986;8.646;2023-08-06T11:57:57;17.50;99.90
31542;DHT22;18152;49.986;8.646;2023-08-06T12:00:24;17.40;99.90
31542;DHT22;18152;49.986;8.646;2023-08-06T12:02:50;17.30;99.90
31542;DHT22;18152;49.986;8.646;2023-08-06T12:05:18;17.00;99.90
31542;DHT22;18152;49.986;8.646;2023-08-06T12:07:57;16.90;99.90
31542;DHT22;18152;49.986;8.646;2023-08-06T12:10:24;16.70;99.90
31542;DHT22;18152;49.986;8.646;2023-08-06T12:12:50;16.70;99.90
31542;DHT22;18152;49.986;8.646;2023-08-06T12:15:16;16.50;99.90
31542;DHT22;18152;49.986;8.646;2023-08-06T12:17:42;16.30;99.90
31542;DHT22;18152;49.986;8.646;2023-08-06T12:20:09;16.30;99.90
31542;DHT22;18152;49.986;8.646;2023-08-06T12:22:35;16.20;99.90
31542;DHT22;18152;49.986;8.646;2023-08-06T12:25:03;16.20;99.90
31542;DHT22;18152;49.986;8.646;2023-08-06T12:27:29;16.20;99.90
31542;DHT22;18152;49.986;8.646;2023-08-06T12:29:55;16.20;99.90
31542;DHT22;18152;49.986;8.646;2023-08-06T12:32:20;16.10;99.90
31542;DHT22;18152;49.986;8.646;2023-08-06T12:34:47;16.20;99.90
31542;DHT22;18152;49.986;8.646;2023-08-06T12:37:12;16.10;99.90
31542;DHT22;18152;49.986;8.646;2023-08-06T12:39:38;16.00;99.90
31542;DHT22;18152;49.986;8.646;2023-08-06T12:42:05;16.10;99.90
31542;DHT22;18152;49.986;8.646;2023-08-06T12:44:31;16.00;99.90
31542;DHT22;18152;49.986;8.646;2023-08-06T12:46:57;16.00;99.90
31542;DHT22;18152;49.986;8.646;2023-08-06T12:49:24;16.00;99.90
31542;DHT22;18152;49.986;8.646;2023-08-06T12:51:52;16.10;99.90
31542;DHT22;18152;49.986;8.646;2023-08-06T12:54:18;16.10;99.90
31542;DHT22;18152;49.986;8.646;2023-08-06T12:56:47;16.20;99.90
31542;DHT22;18152;49.986;8.646;2023-08-06T12:59:16;16.10;99.90
31542;DHT22;18152;49.986;8.646;2023-08-06T13:01:43;16.10;99.90
31542;DHT22;18152;49.986;8.646;2023-08-06T13:04:09;16.10;99.90
31542;DHT22;18152;49.986;8.646;2023-08-06T13:06:35;16.10;99.90
31542;DHT22;18152;49.986;8.646;2023-08-06T13:11:31;15.90;99.90
31542;DHT22;18152;49.986;8.646;2023-08-06T13:14:04;15.80;99.90
31542;DHT22;18152;49.986;8.646;2023-08-06T13:16:30;15.70;99.90
31542;DHT22;18152;49.986;8.646;2023-08-06T13:18:56;15.80;99.90
31542;DHT22;18152;49.986;8.646;2023-08-06T13:21:21;15.80;99.90
31542;DHT22;18152;49.986;8.646;2023-08-06T13:23:47;15.70;99.90
31542;DHT22;18152;49.986;8.646;2023-08-06T13:26:13;15.70;99.90
31542;DHT22;18152;49.986;8.646;2023-08-06T13:28:39;15.70;99.90
31542;DHT22;18152;49.986;8.646;2023-08-06T13:31:04;15.70;99.90
31542;DHT22;18152;49.986;8.646;2023-08-06T13:33:30;15.70;99.90
31542;DHT22;18152;49.986;8.646;2023-08-06T13:35:55;15.80;99.90
31542;DHT22;18152;49.986;8.646;2023-08-06T13:38:21;15.80;99.90
31542;DHT22;18152;49.986;8.646;2023-08-06T13:40:46;15.80;99.90
31542;DHT22;18152;49.986;8.646;2023-08-06T13:43:13;15.70;99.90
31542;DHT22;18152;49.986;8.646;2023-08-06T13:45:39;15.70;99.90
31542;DHT22;18152;49.986;8.646;2023-08-06T13:48:04;15.70;99.90
31542;DHT22;18152;49.986;8.646;2023-08-06T13:50:30;15.90;99.90
31542;DHT22;18152;49.986;8.646;2023-08-06T13:52:55;15.90;99.90
31542;DHT22;18152;49.986;8.646;2023-08-06T13:55:21;15.90;99.90
31542;DHT22;18152;49.986;8.646;2023-08-06T13:57:47;15.90;99.90
31542;DHT22;18152;49.986;8.646;2023-08-06T14:00:13;15.90;99.90
31542;DHT22;18152;49.986;8.646;2023-08-06T14:02:39;15.90;99.90
31542;DHT22;18152;49.986;8.646;2023-08-06T14:05:04;15.90;99.90
31542;DHT22;18152;49.986;8.646;2023-08-06T14:07:30;15.90;99.90
31542;DHT22;18152;49.986;8.646;2023-08-06T14:09:56;15.80;99.90
31542;DHT22;18152;49.986;8.646;2023-08-06T14:12:23;15.80;99.90
31542;DHT22;18152;49.986;8.646;2023-08-06T14:14:48;15.80;99.90
31542;DHT22;18152;49.986;8.646;2023-08-06T14:17:14;15.70;99.90
31542;DHT22;18152;49.986;8.646;2023-08-06T14:19:41;15.50;99.90
31542;DHT22;18152;49.986;8.646;2023-08-06T14:22:06;15.60;99.90
31542;DHT22;18152;49.986;8.646;2023-08-06T14:24:32;15.60;99.90
31542;DHT22;18152;49.986;8.646;2023-08-06T14:26:57;15.60;99.90
31542;DHT22;18152;49.986;8.646;2023-08-06T14:29:23;15.70;99.90
31542;DHT22;18152;49.986;8.646;2023-08-06T14:31:50;15.60;99.90
31542;DHT22;18152;49.986;8.646;2023-08-06T14:34:15;15.70;99.90
31542;DHT22;18152;49.986;8.646;2023-08-06T14:36:41;15.70;99.90
31542;DHT22;18152;49.986;8.646;2023-08-06T14:39:07;15.70;99.90
31542;DHT22;18152;49.986;8.646;2023-08-06T14:41:32;15.60;99.90
31542;DHT22;18152;49.986;8.646;2023-08-06T14:43:58;15.70;99.90
31542;DHT22;18152;49.986;8.646;2023-08-06T14:46:23;15.80;99.90
31542;DHT22;18152;49.986;8.646;2023-08-06T14:48:49;15.70;99.90
31542;DHT22;18152;49.986;8.646;2023-08-06T14:51:15;15.60;99.90
31542;DHT22;18152;49.986;8.646;2023-08-06T14:53:40;15.70;99.90
31542;DHT22;18152;49.986;8.646;2023-08-06T14:56:06;15.50;99.90
31542;DHT22;18152;49.986;8.646;2023-08-06T14:58:32;15.60;99.90
31542;DHT22;18152;49.986;8.646;2023-08-06T15:00:57;15.50;99.90
31542;DHT22;18152;49.986;8.646;2023-08-06T15:03:23;15.70;99.90
31542;DHT22;18152;49.986;8.646;2023-08-06T15:05:49;15.60;99.90
31542;DHT22;18152;49.986;8.646;2023-08-06T15:08:15;15.70;99.90
31542;DHT22;18152;49.986;8.646;2023-08-06T15:10:40;15.70;99.90
31542;DHT22;18152;49.986;8.646;2023-08-06T15:13:06;15.50;99.90
31542;DHT22;18152;49.986;8.646;2023-08-06T15:15:32;15.50;99.90
31542;DHT22;18152;49.986;8.646;2023-08-06T15:17:58;15.60;99.90
31542;DHT22;18152;49.986;8.646;2023-08-06T15:20:24;15.50;99.90
31542;DHT22;18152;49.986;8.646;2023-08-06T15:22:50;15.50;99.90
31542;DHT22;18152;49.986;8.646;2023-08-06T15:25:15;15.50;99.90
31542;DHT22;18152;49.986;8.646;2023-08-06T15:27:41;15.40;99.90
31542;DHT22;18152;49.986;8.646;2023-08-06T15:30:07;15.30;99.90
31542;DHT22;18152;49.986;8.646;2023-08-06T15:32:33;15.20;99.90
31542;DHT22;18152;49.986;8.646;2023-08-06T15:34:59;15.30;99.90
31542;DHT22;18152;49.986;8.646;2023-08-06T15:37:25;15.30;99.90
31542;DHT22;18152;49.986;8.646;2023-08-06T15:39:52;15.30;99.90
31542;DHT22;18152;49.986;8.646;2023-08-06T15:42:17;15.20;99.90
31542;DHT22;18152;49.986;8.646;2023-08-06T15:44:43;15.30;99.90